Hauptseite
METAR-TAF:

METAR-TAF

Flughäfen :

Flugplatz Gobabis

Gobabis, Namibia

Breite: 22-30-20S, Länge: 18-58-30E, Höhe: 1468 m

Beobachtung

Neuester Wetterbericht von vor 50 Minuten, um 06:00 UTC
Wind 3 kt aus Nord/Nordwest
Temperatur 20°C
Luftfeuchtigkeit 83%
Luftdruck 1024 hPa

METAR: FYGB 290600Z AUTO 34003KT //// // ////// 20/17 Q1024

Zeit: 08:50 (06:50 UTC)


TAF: fehlend

Wetterbeobachtungen und Prognosen von mehr als 4000 Flughäfen (METAR und TAF Bericht).

Die verfügbaren Stationen werden durch gelbe und rote Markierungen auf der Karte dargestellt.

Führen Sie die Maus auf sie, um den Namen der Station zu sehen.

Darauf klicken, um die Beobachtung von Wetterbeobachtungen und Prognosen zu sehen.

Um die Karte zu ändern : klicken Sie auf den grünen Tasten mit einem schwarzen Kreuz Zum Vergrößern, auf den grünen Button mit einem Gedankenstrich zu verkleinern, oder auf die grünen Pfeile für benachbarte Karten.


METAR-TAF: